sensor_id;sensor_type;location;lat;lon;timestamp;P1;durP1;ratioP1;P2;durP2;ratioP2
6985;SDS011;3533;51.246;6.850;2023-03-19T00:01:25;1.13;;;1.03;;
6985;SDS011;3533;51.246;6.850;2023-03-19T00:03:51;1.20;;;1.10;;
6985;SDS011;3533;51.246;6.850;2023-03-19T00:06:17;1.20;;;1.10;;
6985;SDS011;3533;51.246;6.850;2023-03-19T00:08:43;1.40;;;1.30;;
6985;SDS011;3533;51.246;6.850;2023-03-19T00:11:08;1.20;;;1.10;;
6985;SDS011;3533;51.246;6.850;2023-03-19T00:13:35;1.10;;;1.00;;
6985;SDS011;3533;51.246;6.850;2023-03-19T00:16:01;1.10;;;1.00;;
6985;SDS011;3533;51.246;6.850;2023-03-19T00:18:26;1.30;;;1.20;;
6985;SDS011;3533;51.246;6.850;2023-03-19T00:20:52;4.53;;;1.63;;
6985;SDS011;3533;51.246;6.850;2023-03-19T00:23:17;1.67;;;1.20;;
6985;SDS011;3533;51.246;6.850;2023-03-19T00:25:43;0.90;;;0.90;;
6985;SDS011;3533;51.246;6.850;2023-03-19T00:28:08;1.10;;;1.00;;
6985;SDS011;3533;51.246;6.850;2023-03-19T00:30:34;1.10;;;1.00;;
6985;SDS011;3533;51.246;6.850;2023-03-19T00:33:00;1.43;;;1.33;;
6985;SDS011;3533;51.246;6.850;2023-03-19T00:35:26;1.10;;;1.00;;
6985;SDS011;3533;51.246;6.850;2023-03-19T00:37:52;1.10;;;1.00;;
6985;SDS011;3533;51.246;6.850;2023-03-19T00:40:19;1.30;;;1.20;;
6985;SDS011;3533;51.246;6.850;2023-03-19T00:42:44;1.20;;;1.00;;
6985;SDS011;3533;51.246;6.850;2023-03-19T00:45:10;1.30;;;1.20;;
6985;SDS011;3533;51.246;6.850;2023-03-19T00:47:36;1.20;;;1.10;;
6985;SDS011;3533;51.246;6.850;2023-03-19T00:50:02;1.23;;;1.13;;
6985;SDS011;3533;51.246;6.850;2023-03-19T00:52:28;1.10;;;1.00;;
6985;SDS011;3533;51.246;6.850;2023-03-19T00:54:54;1.23;;;1.10;;
6985;SDS011;3533;51.246;6.850;2023-03-19T00:57:20;1.40;;;1.30;;
6985;SDS011;3533;51.246;6.850;2023-03-19T00:59:46;0.80;;;0.80;;
6985;SDS011;3533;51.246;6.850;2023-03-19T01:02:11;0.90;;;0.90;;
6985;SDS011;3533;51.246;6.850;2023-03-19T01:04:37;1.10;;;1.00;;
6985;SDS011;3533;51.246;6.850;2023-03-19T01:07:03;1.20;;;1.10;;
6985;SDS011;3533;51.246;6.850;2023-03-19T01:09:28;1.00;;;0.90;;
6985;SDS011;3533;51.246;6.850;2023-03-19T01:11:54;1.20;;;1.10;;
6985;SDS011;3533;51.246;6.850;2023-03-19T01:14:19;0.90;;;0.90;;
6985;SDS011;3533;51.246;6.850;2023-03-19T01:16:45;1.60;;;1.20;;
6985;SDS011;3533;51.246;6.850;2023-03-19T01:19:11;1.00;;;0.93;;
6985;SDS011;3533;51.246;6.850;2023-03-19T01:21:38;1.20;;;1.10;;
6985;SDS011;3533;51.246;6.850;2023-03-19T01:24:03;3.03;;;1.00;;
6985;SDS011;3533;51.246;6.850;2023-03-19T01:26:29;1.20;;;1.10;;
6985;SDS011;3533;51.246;6.850;2023-03-19T01:28:56;1.10;;;1.00;;
6985;SDS011;3533;51.246;6.850;2023-03-19T01:31:22;1.20;;;1.10;;
6985;SDS011;3533;51.246;6.850;2023-03-19T01:33:47;0.90;;;0.90;;
6985;SDS011;3533;51.246;6.850;2023-03-19T01:36:13;1.10;;;1.00;;
6985;SDS011;3533;51.246;6.850;2023-03-19T01:38:39;1.50;;;1.10;;
6985;SDS011;3533;51.246;6.850;2023-03-19T01:41:04;1.87;;;1.77;;
6985;SDS011;3533;51.246;6.850;2023-03-19T01:43:30;1.30;;;1.20;;
6985;SDS011;3533;51.246;6.850;2023-03-19T01:46:04;1.10;;;1.00;;
6985;SDS011;3533;51.246;6.850;2023-03-19T01:48:45;1.27;;;1.17;;
6985;SDS011;3533;51.246;6.850;2023-03-19T01:51:12;1.07;;;1.00;;
6985;SDS011;3533;51.246;6.850;2023-03-19T01:53:40;1.10;;;1.00;;
6985;SDS011;3533;51.246;6.850;2023-03-19T01:56:13;1.20;;;1.10;;
6985;SDS011;3533;51.246;6.850;2023-03-19T01:58:42;0.87;;;0.87;;
6985;SDS011;3533;51.246;6.850;2023-03-19T02:01:11;1.00;;;1.00;;
6985;SDS011;3533;51.246;6.850;2023-03-19T02:03:37;1.10;;;1.00;;
6985;SDS011;3533;51.246;6.850;2023-03-19T02:06:04;0.93;;;0.93;;
6985;SDS011;3533;51.246;6.850;2023-03-19T02:08:31;1.03;;;0.93;;
6985;SDS011;3533;51.246;6.850;2023-03-19T02:10:58;1.10;;;1.00;;
6985;SDS011;3533;51.246;6.850;2023-03-19T02:13:26;1.00;;;1.00;;
6985;SDS011;3533;51.246;6.850;2023-03-19T02:15:51;1.00;;;0.90;;
6985;SDS011;3533;51.246;6.850;2023-03-19T02:18:18;1.50;;;1.00;;
6985;SDS011;3533;51.246;6.850;2023-03-19T02:20:49;1.10;;;1.00;;
6985;SDS011;3533;51.246;6.850;2023-03-19T02:26:19;0.93;;;0.90;;
6985;SDS011;3533;51.246;6.850;2023-03-19T02:28:47;0.90;;;0.90;;
6985;SDS011;3533;51.246;6.850;2023-03-19T02:31:14;1.10;;;1.00;;
6985;SDS011;3533;51.246;6.850;2023-03-19T02:33:41;1.20;;;1.10;;
6985;SDS011;3533;51.246;6.850;2023-03-19T02:36:11;1.10;;;1.00;;
6985;SDS011;3533;51.246;6.850;2023-03-19T02:38:41;1.17;;;1.07;;
6985;SDS011;3533;51.246;6.850;2023-03-19T02:41:09;1.00;;;0.90;;
6985;SDS011;3533;51.246;6.850;2023-03-19T02:43:36;1.13;;;1.03;;
6985;SDS011;3533;51.246;6.850;2023-03-19T02:46:04;1.00;;;1.00;;
6985;SDS011;3533;51.246;6.850;2023-03-19T02:48:32;1.10;;;1.00;;
6985;SDS011;3533;51.246;6.850;2023-03-19T02:50:58;1.00;;;1.00;;
6985;SDS011;3533;51.246;6.850;2023-03-19T02:53:24;1.10;;;1.00;;
6985;SDS011;3533;51.246;6.850;2023-03-19T02:55:50;1.00;;;0.97;;
6985;SDS011;3533;51.246;6.850;2023-03-19T02:58:15;1.03;;;0.93;;
6985;SDS011;3533;51.246;6.850;2023-03-19T03:00:41;1.10;;;1.00;;
6985;SDS011;3533;51.246;6.850;2023-03-19T03:03:07;1.03;;;0.97;;
6985;SDS011;3533;51.246;6.850;2023-03-19T03:05:33;1.10;;;1.00;;
6985;SDS011;3533;51.246;6.850;2023-03-19T03:07:59;1.03;;;0.97;;
6985;SDS011;3533;51.246;6.850;2023-03-19T03:10:25;1.10;;;1.03;;
6985;SDS011;3533;51.246;6.850;2023-03-19T03:12:50;1.20;;;1.10;;
6985;SDS011;3533;51.246;6.850;2023-03-19T03:15:16;0.97;;;0.97;;
6985;SDS011;3533;51.246;6.850;2023-03-19T03:17:43;1.00;;;0.90;;
6985;SDS011;3533;51.246;6.850;2023-03-19T03:20:10;1.00;;;1.00;;
6985;SDS011;3533;51.246;6.850;2023-03-19T03:22:38;1.13;;;1.03;;
6985;SDS011;3533;51.246;6.850;2023-03-19T03:25:04;1.10;;;1.00;;
6985;SDS011;3533;51.246;6.850;2023-03-19T03:27:30;1.30;;;1.20;;
6985;SDS011;3533;51.246;6.850;2023-03-19T03:29:57;1.00;;;0.90;;
6985;SDS011;3533;51.246;6.850;2023-03-19T03:32:23;1.10;;;1.00;;
6985;SDS011;3533;51.246;6.850;2023-03-19T03:34:48;1.20;;;1.10;;
6985;SDS011;3533;51.246;6.850;2023-03-19T03:37:14;1.10;;;1.00;;
6985;SDS011;3533;51.246;6.850;2023-03-19T03:39:41;0.90;;;0.90;;
6985;SDS011;3533;51.246;6.850;2023-03-19T03:42:07;1.03;;;0.93;;
6985;SDS011;3533;51.246;6.850;2023-03-19T03:44:32;1.23;;;1.13;;
6985;SDS011;3533;51.246;6.850;2023-03-19T03:46:58;1.10;;;1.00;;
6985;SDS011;3533;51.246;6.850;2023-03-19T03:49:23;1.10;;;1.00;;
6985;SDS011;3533;51.246;6.850;2023-03-19T03:51:49;1.20;;;1.10;;
6985;SDS011;3533;51.246;6.850;2023-03-19T03:54:15;1.07;;;1.00;;
6985;SDS011;3533;51.246;6.850;2023-03-19T03:56:40;1.10;;;1.00;;
6985;SDS011;3533;51.246;6.850;2023-03-19T03:59:06;1.07;;;0.97;;
6985;SDS011;3533;51.246;6.850;2023-03-19T04:01:32;1.43;;;1.33;;
6985;SDS011;3533;51.246;6.850;2023-03-19T04:03:58;1.10;;;1.00;;
6985;SDS011;3533;51.246;6.850;2023-03-19T04:06:24;1.10;;;1.00;;
6985;SDS011;3533;51.246;6.850;2023-03-19T04:08:51;1.20;;;1.10;;
6985;SDS011;3533;51.246;6.850;2023-03-19T04:11:16;1.10;;;1.00;;
6985;SDS011;3533;51.246;6.850;2023-03-19T04:13:42;1.30;;;1.20;;
6985;SDS011;3533;51.246;6.850;2023-03-19T04:16:08;1.00;;;0.90;;
6985;SDS011;3533;51.246;6.850;2023-03-19T04:18:34;1.10;;;1.00;;
6985;SDS011;3533;51.246;6.850;2023-03-19T04:21:01;1.00;;;0.90;;
6985;SDS011;3533;51.246;6.850;2023-03-19T04:23:27;1.20;;;1.10;;
6985;SDS011;3533;51.246;6.850;2023-03-19T04:25:57;1.20;;;1.10;;
6985;SDS011;3533;51.246;6.850;2023-03-19T04:28:23;1.10;;;1.00;;
6985;SDS011;3533;51.246;6.850;2023-03-19T04:30:49;0.90;;;0.90;;
6985;SDS011;3533;51.246;6.850;2023-03-19T04:33:14;1.20;;;1.10;;
6985;SDS011;3533;51.246;6.850;2023-03-19T04:35:41;1.10;;;1.00;;
6985;SDS011;3533;51.246;6.850;2023-03-19T04:38:07;1.10;;;1.00;;
6985;SDS011;3533;51.246;6.850;2023-03-19T04:40:33;1.20;;;1.10;;
6985;SDS011;3533;51.246;6.850;2023-03-19T04:42:59;1.30;;;1.20;;
6985;SDS011;3533;51.246;6.850;2023-03-19T04:45:24;1.20;;;1.10;;
6985;SDS011;3533;51.246;6.850;2023-03-19T04:47:50;0.90;;;0.90;;
6985;SDS011;3533;51.246;6.850;2023-03-19T04:50:15;3.60;;;1.13;;
6985;SDS011;3533;51.246;6.850;2023-03-19T04:52:42;1.47;;;1.27;;
6985;SDS011;3533;51.246;6.850;2023-03-19T04:55:07;1.03;;;1.00;;
6985;SDS011;3533;51.246;6.850;2023-03-19T04:57:33;1.00;;;1.00;;
6985;SDS011;3533;51.246;6.850;2023-03-19T04:59:59;0.93;;;0.90;;
6985;SDS011;3533;51.246;6.850;2023-03-19T05:02:25;0.83;;;0.83;;
6985;SDS011;3533;51.246;6.850;2023-03-19T05:04:51;1.10;;;1.00;;
6985;SDS011;3533;51.246;6.850;2023-03-19T05:07:17;1.60;;;1.07;;
6985;SDS011;3533;51.246;6.850;2023-03-19T05:09:43;1.10;;;1.00;;
6985;SDS011;3533;51.246;6.850;2023-03-19T05:12:10;1.10;;;1.00;;
6985;SDS011;3533;51.246;6.850;2023-03-19T05:14:36;1.10;;;1.00;;
6985;SDS011;3533;51.246;6.850;2023-03-19T05:17:02;1.20;;;1.10;;
6985;SDS011;3533;51.246;6.850;2023-03-19T05:19:28;1.23;;;1.13;;
6985;SDS011;3533;51.246;6.850;2023-03-19T05:21:53;0.90;;;0.90;;
6985;SDS011;3533;51.246;6.850;2023-03-19T05:24:21;1.13;;;1.00;;
6985;SDS011;3533;51.246;6.850;2023-03-19T05:26:47;1.00;;;1.00;;
6985;SDS011;3533;51.246;6.850;2023-03-19T05:29:12;0.90;;;0.90;;
6985;SDS011;3533;51.246;6.850;2023-03-19T05:31:38;1.10;;;1.00;;
6985;SDS011;3533;51.246;6.850;2023-03-19T05:34:05;1.07;;;0.97;;
6985;SDS011;3533;51.246;6.850;2023-03-19T05:36:30;1.10;;;1.00;;
6985;SDS011;3533;51.246;6.850;2023-03-19T05:38:56;1.13;;;1.03;;
6985;SDS011;3533;51.246;6.850;2023-03-19T05:41:21;1.43;;;0.97;;
6985;SDS011;3533;51.246;6.850;2023-03-19T05:43:47;1.00;;;0.90;;
6985;SDS011;3533;51.246;6.850;2023-03-19T05:46:12;0.83;;;0.80;;
6985;SDS011;3533;51.246;6.850;2023-03-19T05:48:38;1.20;;;1.10;;
6985;SDS011;3533;51.246;6.850;2023-03-19T05:51:04;0.97;;;0.87;;
6985;SDS011;3533;51.246;6.850;2023-03-19T05:53:29;1.00;;;0.90;;
6985;SDS011;3533;51.246;6.850;2023-03-19T05:55:55;1.00;;;1.00;;
6985;SDS011;3533;51.246;6.850;2023-03-19T05:58:20;1.10;;;1.00;;
6985;SDS011;3533;51.246;6.850;2023-03-19T06:00:46;0.90;;;0.90;;
6985;SDS011;3533;51.246;6.850;2023-03-19T06:03:15;1.10;;;1.00;;
6985;SDS011;3533;51.246;6.850;2023-03-19T06:05:41;1.10;;;1.00;;
6985;SDS011;3533;51.246;6.850;2023-03-19T06:08:06;1.07;;;1.00;;
6985;SDS011;3533;51.246;6.850;2023-03-19T06:10:35;1.43;;;1.00;;
6985;SDS011;3533;51.246;6.850;2023-03-19T06:13:01;0.90;;;0.90;;
6985;SDS011;3533;51.246;6.850;2023-03-19T06:15:26;1.10;;;1.00;;
6985;SDS011;3533;51.246;6.850;2023-03-19T06:17:52;0.90;;;0.90;;
6985;SDS011;3533;51.246;6.850;2023-03-19T06:20:17;1.03;;;0.97;;
6985;SDS011;3533;51.246;6.850;2023-03-19T06:22:43;1.10;;;1.00;;
6985;SDS011;3533;51.246;6.850;2023-03-19T06:25:09;0.90;;;0.90;;
6985;SDS011;3533;51.246;6.850;2023-03-19T06:27:35;0.93;;;0.83;;
6985;SDS011;3533;51.246;6.850;2023-03-19T06:30:00;1.10;;;1.00;;
6985;SDS011;3533;51.246;6.850;2023-03-19T06:32:26;1.10;;;1.00;;
6985;SDS011;3533;51.246;6.850;2023-03-19T06:34:51;1.07;;;0.97;;
6985;SDS011;3533;51.246;6.850;2023-03-19T06:37:19;3.60;;;0.90;;
6985;SDS011;3533;51.246;6.850;2023-03-19T06:39:44;1.27;;;0.90;;
6985;SDS011;3533;51.246;6.850;2023-03-19T06:42:10;1.07;;;0.97;;
6985;SDS011;3533;51.246;6.850;2023-03-19T06:44:36;0.83;;;0.83;;
6985;SDS011;3533;51.246;6.850;2023-03-19T06:47:01;1.00;;;0.90;;
6985;SDS011;3533;51.246;6.850;2023-03-19T06:49:27;0.83;;;0.80;;
6985;SDS011;3533;51.246;6.850;2023-03-19T06:51:52;1.10;;;1.00;;
6985;SDS011;3533;51.246;6.850;2023-03-19T06:54:18;0.90;;;0.90;;
6985;SDS011;3533;51.246;6.850;2023-03-19T06:56:43;1.10;;;1.00;;
6985;SDS011;3533;51.246;6.850;2023-03-19T06:59:10;1.00;;;0.90;;
6985;SDS011;3533;51.246;6.850;2023-03-19T07:01:37;1.00;;;0.90;;
6985;SDS011;3533;51.246;6.850;2023-03-19T07:04:06;0.90;;;0.80;;
6985;SDS011;3533;51.246;6.850;2023-03-19T07:06:31;0.80;;;0.80;;
6985;SDS011;3533;51.246;6.850;2023-03-19T07:08:58;0.97;;;0.93;;
6985;SDS011;3533;51.246;6.850;2023-03-19T07:11:24;1.10;;;1.00;;
6985;SDS011;3533;51.246;6.850;2023-03-19T07:13:50;1.10;;;0.90;;
6985;SDS011;3533;51.246;6.850;2023-03-19T07:16:16;5.13;;;0.93;;
6985;SDS011;3533;51.246;6.850;2023-03-19T07:18:41;1.03;;;1.00;;
6985;SDS011;3533;51.246;6.850;2023-03-19T07:21:07;1.10;;;1.00;;
6985;SDS011;3533;51.246;6.850;2023-03-19T07:23:32;1.10;;;1.00;;
6985;SDS011;3533;51.246;6.850;2023-03-19T07:25:58;1.00;;;0.90;;
6985;SDS011;3533;51.246;6.850;2023-03-19T07:28:23;1.40;;;0.97;;
6985;SDS011;3533;51.246;6.850;2023-03-19T07:30:52;0.80;;;0.80;;
6985;SDS011;3533;51.246;6.850;2023-03-19T07:33:18;3.03;;;1.00;;
6985;SDS011;3533;51.246;6.850;2023-03-19T07:35:45;1.30;;;1.20;;
6985;SDS011;3533;51.246;6.850;2023-03-19T07:38:10;1.10;;;1.00;;
6985;SDS011;3533;51.246;6.850;2023-03-19T07:40:36;1.00;;;0.90;;
6985;SDS011;3533;51.246;6.850;2023-03-19T07:43:02;1.20;;;0.97;;
6985;SDS011;3533;51.246;6.850;2023-03-19T07:45:28;1.10;;;1.00;;
6985;SDS011;3533;51.246;6.850;2023-03-19T07:47:53;1.30;;;1.20;;
6985;SDS011;3533;51.246;6.850;2023-03-19T07:50:19;1.10;;;1.00;;
6985;SDS011;3533;51.246;6.850;2023-03-19T07:52:45;1.00;;;0.90;;
6985;SDS011;3533;51.246;6.850;2023-03-19T07:55:12;1.13;;;1.00;;
6985;SDS011;3533;51.246;6.850;2023-03-19T07:57:38;1.40;;;0.90;;
6985;SDS011;3533;51.246;6.850;2023-03-19T08:00:03;0.87;;;0.83;;
6985;SDS011;3533;51.246;6.850;2023-03-19T08:02:29;1.07;;;0.97;;
6985;SDS011;3533;51.246;6.850;2023-03-19T08:04:55;1.10;;;1.00;;
6985;SDS011;3533;51.246;6.850;2023-03-19T08:07:21;1.20;;;0.90;;
6985;SDS011;3533;51.246;6.850;2023-03-19T08:09:46;1.07;;;0.97;;
6985;SDS011;3533;51.246;6.850;2023-03-19T08:12:12;0.80;;;0.80;;
6985;SDS011;3533;51.246;6.850;2023-03-19T08:14:38;1.03;;;0.93;;
6985;SDS011;3533;51.246;6.850;2023-03-19T08:17:03;1.00;;;1.00;;
6985;SDS011;3533;51.246;6.850;2023-03-19T08:19:29;0.80;;;0.80;;
6985;SDS011;3533;51.246;6.850;2023-03-19T08:21:55;1.63;;;0.90;;
6985;SDS011;3533;51.246;6.850;2023-03-19T08:24:21;0.90;;;0.80;;
6985;SDS011;3533;51.246;6.850;2023-03-19T08:26:47;1.10;;;1.00;;
6985;SDS011;3533;51.246;6.850;2023-03-19T08:29:12;1.10;;;1.00;;
6985;SDS011;3533;51.246;6.850;2023-03-19T08:31:38;1.20;;;0.80;;
6985;SDS011;3533;51.246;6.850;2023-03-19T08:34:03;1.00;;;0.90;;
6985;SDS011;3533;51.246;6.850;2023-03-19T08:36:30;0.87;;;0.87;;
6985;SDS011;3533;51.246;6.850;2023-03-19T08:38:56;1.30;;;1.10;;
6985;SDS011;3533;51.246;6.850;2023-03-19T08:41:23;0.70;;;0.70;;
6985;SDS011;3533;51.246;6.850;2023-03-19T08:43:48;4.37;;;1.17;;
6985;SDS011;3533;51.246;6.850;2023-03-19T08:46:14;1.00;;;0.90;;
6985;SDS011;3533;51.246;6.850;2023-03-19T08:48:40;1.23;;;1.00;;
6985;SDS011;3533;51.246;6.850;2023-03-19T08:51:06;1.40;;;0.90;;
6985;SDS011;3533;51.246;6.850;2023-03-19T08:53:33;1.00;;;0.90;;
6985;SDS011;3533;51.246;6.850;2023-03-19T08:56:00;1.00;;;1.00;;
6985;SDS011;3533;51.246;6.850;2023-03-19T08:58:27;0.93;;;0.87;;
6985;SDS011;3533;51.246;6.850;2023-03-19T09:00:59;1.03;;;0.90;;
6985;SDS011;3533;51.246;6.850;2023-03-19T09:03:27;3.27;;;1.10;;
6985;SDS011;3533;51.246;6.850;2023-03-19T09:05:53;1.07;;;0.90;;
6985;SDS011;3533;51.246;6.850;2023-03-19T09:08:23;1.10;;;1.00;;
6985;SDS011;3533;51.246;6.850;2023-03-19T09:10:48;0.90;;;0.80;;
6985;SDS011;3533;51.246;6.850;2023-03-19T09:13:14;1.10;;;1.00;;
6985;SDS011;3533;51.246;6.850;2023-03-19T09:15:39;1.00;;;0.90;;
6985;SDS011;3533;51.246;6.850;2023-03-19T09:18:05;1.10;;;1.00;;
6985;SDS011;3533;51.246;6.850;2023-03-19T09:20:30;0.80;;;0.80;;
6985;SDS011;3533;51.246;6.850;2023-03-19T09:22:56;0.80;;;0.80;;
6985;SDS011;3533;51.246;6.850;2023-03-19T09:25:21;0.93;;;0.90;;
6985;SDS011;3533;51.246;6.850;2023-03-19T09:27:47;0.80;;;0.80;;
6985;SDS011;3533;51.246;6.850;2023-03-19T09:30:13;1.00;;;0.80;;
6985;SDS011;3533;51.246;6.850;2023-03-19T09:32:39;0.90;;;0.90;;
6985;SDS011;3533;51.246;6.850;2023-03-19T09:35:04;1.07;;;0.97;;
6985;SDS011;3533;51.246;6.850;2023-03-19T09:37:31;1.50;;;0.93;;
6985;SDS011;3533;51.246;6.850;2023-03-19T09:39:56;0.90;;;0.90;;
6985;SDS011;3533;51.246;6.850;2023-03-19T09:42:31;1.00;;;0.90;;
6985;SDS011;3533;51.246;6.850;2023-03-19T09:45:11;0.80;;;0.80;;
6985;SDS011;3533;51.246;6.850;2023-03-19T09:47:39;0.93;;;0.83;;
6985;SDS011;3533;51.246;6.850;2023-03-19T09:50:09;0.93;;;0.90;;
6985;SDS011;3533;51.246;6.850;2023-03-19T09:52:44;1.00;;;0.87;;
6985;SDS011;3533;51.246;6.850;2023-03-19T09:57:48;1.00;;;0.90;;
6985;SDS011;3533;51.246;6.850;2023-03-19T10:02:49;2.50;;;0.97;;
6985;SDS011;3533;51.246;6.850;2023-03-19T10:16:41;0.97;;;0.80;;
6985;SDS011;3533;51.246;6.850;2023-03-19T10:19:12;0.80;;;0.80;;
6985;SDS011;3533;51.246;6.850;2023-03-19T10:21:47;1.00;;;0.80;;
6985;SDS011;3533;51.246;6.850;2023-03-19T10:24:21;0.90;;;0.70;;
6985;SDS011;3533;51.246;6.850;2023-03-19T10:27:09;1.00;;;0.90;;
6985;SDS011;3533;51.246;6.850;2023-03-19T10:29:41;1.03;;;0.90;;
6985;SDS011;3533;51.246;6.850;2023-03-19T10:32:17;1.90;;;0.80;;
6985;SDS011;3533;51.246;6.850;2023-03-19T10:34:53;1.00;;;0.80;;
6985;SDS011;3533;51.246;6.850;2023-03-19T10:37:24;2.07;;;0.90;;
6985;SDS011;3533;51.246;6.850;2023-03-19T10:39:54;1.00;;;0.83;;
6985;SDS011;3533;51.246;6.850;2023-03-19T10:42:34;0.83;;;0.80;;
6985;SDS011;3533;51.246;6.850;2023-03-19T10:45:13;1.30;;;1.20;;
6985;SDS011;3533;51.246;6.850;2023-03-19T10:47:43;0.80;;;0.80;;
6985;SDS011;3533;51.246;6.850;2023-03-19T10:50:14;0.87;;;0.87;;
6985;SDS011;3533;51.246;6.850;2023-03-19T10:52:41;0.80;;;0.80;;
6985;SDS011;3533;51.246;6.850;2023-03-19T10:55:12;1.07;;;0.97;;
6985;SDS011;3533;51.246;6.850;2023-03-19T10:57:40;1.10;;;0.90;;
6985;SDS011;3533;51.246;6.850;2023-03-19T11:00:40;0.83;;;0.70;;
6985;SDS011;3533;51.246;6.850;2023-03-19T11:03:00;1.90;;;1.00;;
6985;SDS011;3533;51.246;6.850;2023-03-19T11:05:29;0.70;;;0.70;;
6985;SDS011;3533;51.246;6.850;2023-03-19T11:07:59;0.80;;;0.80;;
6985;SDS011;3533;51.246;6.850;2023-03-19T11:10:27;1.53;;;0.80;;
6985;SDS011;3533;51.246;6.850;2023-03-19T11:12:56;0.70;;;0.70;;
6985;SDS011;3533;51.246;6.850;2023-03-19T11:15:31;0.80;;;0.80;;
6985;SDS011;3533;51.246;6.850;2023-03-19T11:18:04;1.10;;;1.00;;
6985;SDS011;3533;51.246;6.850;2023-03-19T11:20:54;0.70;;;0.70;;
6985;SDS011;3533;51.246;6.850;2023-03-19T11:23:20;0.90;;;0.80;;
6985;SDS011;3533;51.246;6.850;2023-03-19T11:25:48;0.90;;;0.80;;
6985;SDS011;3533;51.246;6.850;2023-03-19T11:28:16;1.63;;;0.83;;
6985;SDS011;3533;51.246;6.850;2023-03-19T11:30:48;0.70;;;0.70;;
6985;SDS011;3533;51.246;6.850;2023-03-19T11:33:53;1.10;;;1.00;;
6985;SDS011;3533;51.246;6.850;2023-03-19T11:42:01;0.80;;;0.80;;
6985;SDS011;3533;51.246;6.850;2023-03-19T11:55:50;0.90;;;0.80;;
6985;SDS011;3533;51.246;6.850;2023-03-19T11:59:31;0.80;;;0.80;;
6985;SDS011;3533;51.246;6.850;2023-03-19T12:12:37;0.97;;;0.80;;
6985;SDS011;3533;51.246;6.850;2023-03-19T12:15:22;1.20;;;0.70;;
6985;SDS011;3533;51.246;6.850;2023-03-19T12:18:04;1.87;;;0.90;;
6985;SDS011;3533;51.246;6.850;2023-03-19T12:21:07;1.10;;;0.80;;
6985;SDS011;3533;51.246;6.850;2023-03-19T12:24:29;0.70;;;0.60;;
6985;SDS011;3533;51.246;6.850;2023-03-19T12:26:50;0.90;;;0.90;;
6985;SDS011;3533;51.246;6.850;2023-03-19T12:29:22;0.90;;;0.83;;
6985;SDS011;3533;51.246;6.850;2023-03-19T12:34:30;0.70;;;0.70;;
6985;SDS011;3533;51.246;6.850;2023-03-19T12:37:12;0.97;;;0.80;;
6985;SDS011;3533;51.246;6.850;2023-03-19T12:40:06;0.70;;;0.67;;
6985;SDS011;3533;51.246;6.850;2023-03-19T12:42:38;1.20;;;1.10;;
6985;SDS011;3533;51.246;6.850;2023-03-19T12:45:28;0.87;;;0.83;;
6985;SDS011;3533;51.246;6.850;2023-03-19T12:48:09;0.77;;;0.70;;
6985;SDS011;3533;51.246;6.850;2023-03-19T12:50:43;0.87;;;0.87;;
6985;SDS011;3533;51.246;6.850;2023-03-19T12:56:09;0.80;;;0.80;;
6985;SDS011;3533;51.246;6.850;2023-03-19T12:58:58;0.83;;;0.73;;
6985;SDS011;3533;51.246;6.850;2023-03-19T13:01:29;0.97;;;0.80;;
6985;SDS011;3533;51.246;6.850;2023-03-19T13:06:54;3.73;;;0.80;;
6985;SDS011;3533;51.246;6.850;2023-03-19T13:09:27;0.90;;;0.80;;
6985;SDS011;3533;51.246;6.850;2023-03-19T13:12:04;0.80;;;0.80;;
6985;SDS011;3533;51.246;6.850;2023-03-19T13:19:51;1.47;;;0.80;;
6985;SDS011;3533;51.246;6.850;2023-03-19T13:22:25;0.80;;;0.77;;
6985;SDS011;3533;51.246;6.850;2023-03-19T13:24:53;0.80;;;0.80;;
6985;SDS011;3533;51.246;6.850;2023-03-19T13:27:25;0.70;;;0.70;;
6985;SDS011;3533;51.246;6.850;2023-03-19T13:29:59;0.80;;;0.80;;
6985;SDS011;3533;51.246;6.850;2023-03-19T13:32:35;0.90;;;0.67;;
6985;SDS011;3533;51.246;6.850;2023-03-19T13:37:58;2.00;;;0.90;;
6985;SDS011;3533;51.246;6.850;2023-03-19T13:40:43;1.00;;;0.90;;
6985;SDS011;3533;51.246;6.850;2023-03-19T13:48:38;1.13;;;1.00;;
6985;SDS011;3533;51.246;6.850;2023-03-19T13:56:19;1.07;;;0.97;;
6985;SDS011;3533;51.246;6.850;2023-03-19T14:04:04;1.00;;;0.90;;
6985;SDS011;3533;51.246;6.850;2023-03-19T14:06:41;1.20;;;0.83;;
6985;SDS011;3533;51.246;6.850;2023-03-19T14:09:29;0.90;;;0.90;;
6985;SDS011;3533;51.246;6.850;2023-03-19T14:12:07;1.10;;;0.90;;
6985;SDS011;3533;51.246;6.850;2023-03-19T14:17:17;2.23;;;1.10;;
6985;SDS011;3533;51.246;6.850;2023-03-19T14:19:45;0.90;;;0.90;;
6985;SDS011;3533;51.246;6.850;2023-03-19T14:25:01;2.10;;;0.90;;
6985;SDS011;3533;51.246;6.850;2023-03-19T14:27:27;2.00;;;1.10;;
6985;SDS011;3533;51.246;6.850;2023-03-19T14:30:01;1.40;;;0.93;;
6985;SDS011;3533;51.246;6.850;2023-03-19T14:32:34;4.60;;;1.20;;
6985;SDS011;3533;51.246;6.850;2023-03-19T14:35:06;3.30;;;1.07;;
6985;SDS011;3533;51.246;6.850;2023-03-19T14:40:17;177.87;;;19.13;;
6985;SDS011;3533;51.246;6.850;2023-03-19T14:43:06;75.27;;;13.07;;
6985;SDS011;3533;51.246;6.850;2023-03-19T14:54:46;88.97;;;8.60;;
6985;SDS011;3533;51.246;6.850;2023-03-19T14:57:21;141.43;;;15.07;;
6985;SDS011;3533;51.246;6.850;2023-03-19T14:59:51;132.83;;;16.13;;
6985;SDS011;3533;51.246;6.850;2023-03-19T15:02:30;105.80;;;12.33;;
6985;SDS011;3533;51.246;6.850;2023-03-19T15:04:59;198.50;;;22.90;;
6985;SDS011;3533;51.246;6.850;2023-03-19T15:07:30;181.63;;;21.40;;
6985;SDS011;3533;51.246;6.850;2023-03-19T15:09:59;194.20;;;23.13;;
6985;SDS011;3533;51.246;6.850;2023-03-19T15:15:16;101.07;;;12.33;;
6985;SDS011;3533;51.246;6.850;2023-03-19T15:18:03;143.63;;;12.70;;
6985;SDS011;3533;51.246;6.850;2023-03-19T15:20:36;68.23;;;11.87;;
6985;SDS011;3533;51.246;6.850;2023-03-19T15:23:09;77.37;;;11.80;;
6985;SDS011;3533;51.246;6.850;2023-03-19T15:25:51;66.70;;;11.30;;
6985;SDS011;3533;51.246;6.850;2023-03-19T15:28:21;17.10;;;5.93;;
6985;SDS011;3533;51.246;6.850;2023-03-19T15:30:58;57.57;;;8.40;;
6985;SDS011;3533;51.246;6.850;2023-03-19T15:33:36;47.33;;;7.40;;
6985;SDS011;3533;51.246;6.850;2023-03-19T15:38:33;27.87;;;7.40;;
6985;SDS011;3533;51.246;6.850;2023-03-19T15:41:03;39.83;;;9.40;;
6985;SDS011;3533;51.246;6.850;2023-03-19T15:43:31;41.77;;;8.30;;
6985;SDS011;3533;51.246;6.850;2023-03-19T15:45:58;19.90;;;6.27;;
6985;SDS011;3533;51.246;6.850;2023-03-19T15:48:26;9.27;;;4.33;;
6985;SDS011;3533;51.246;6.850;2023-03-19T15:51:03;12.73;;;3.90;;
6985;SDS011;3533;51.246;6.850;2023-03-19T15:53:32;7.77;;;3.20;;
6985;SDS011;3533;51.246;6.850;2023-03-19T15:56:00;5.20;;;3.17;;
6985;SDS011;3533;51.246;6.850;2023-03-19T15:58:28;6.60;;;2.97;;
6985;SDS011;3533;51.246;6.850;2023-03-19T16:00:56;7.37;;;2.90;;
6985;SDS011;3533;51.246;6.850;2023-03-19T16:03:30;5.20;;;2.70;;
6985;SDS011;3533;51.246;6.850;2023-03-19T16:06:05;3.60;;;2.37;;
6985;SDS011;3533;51.246;6.850;2023-03-19T16:08:49;2.90;;;1.90;;
6985;SDS011;3533;51.246;6.850;2023-03-19T16:16:35;2.20;;;2.00;;
6985;SDS011;3533;51.246;6.850;2023-03-19T16:19:04;2.57;;;2.37;;
6985;SDS011;3533;51.246;6.850;2023-03-19T16:21:34;3.90;;;1.97;;
6985;SDS011;3533;51.246;6.850;2023-03-19T16:26:29;2.00;;;1.50;;
6985;SDS011;3533;51.246;6.850;2023-03-19T16:31:49;2.17;;;1.30;;
6985;SDS011;3533;51.246;6.850;2023-03-19T16:34:39;1.87;;;1.50;;
6985;SDS011;3533;51.246;6.850;2023-03-19T16:42:42;1.60;;;1.20;;
6985;SDS011;3533;51.246;6.850;2023-03-19T16:47:45;1.53;;;1.40;;
6985;SDS011;3533;51.246;6.850;2023-03-19T16:50:12;1.60;;;1.30;;
6985;SDS011;3533;51.246;6.850;2023-03-19T16:52:39;1.63;;;1.20;;
6985;SDS011;3533;51.246;6.850;2023-03-19T16:55:14;1.40;;;1.30;;
6985;SDS011;3533;51.246;6.850;2023-03-19T16:57:43;1.07;;;0.97;;
6985;SDS011;3533;51.246;6.850;2023-03-19T17:00:10;1.10;;;1.00;;
6985;SDS011;3533;51.246;6.850;2023-03-19T17:02:37;1.53;;;1.00;;
6985;SDS011;3533;51.246;6.850;2023-03-19T17:05:04;1.20;;;1.00;;
6985;SDS011;3533;51.246;6.850;2023-03-19T17:07:36;1.10;;;1.00;;
6985;SDS011;3533;51.246;6.850;2023-03-19T17:10:02;2.87;;;1.20;;
6985;SDS011;3533;51.246;6.850;2023-03-19T17:12:28;1.63;;;1.10;;
6985;SDS011;3533;51.246;6.850;2023-03-19T17:14:53;1.10;;;0.93;;
6985;SDS011;3533;51.246;6.850;2023-03-19T17:17:19;1.20;;;1.10;;
6985;SDS011;3533;51.246;6.850;2023-03-19T17:19:46;1.30;;;1.20;;
6985;SDS011;3533;51.246;6.850;2023-03-19T17:22:11;1.70;;;1.03;;
6985;SDS011;3533;51.246;6.850;2023-03-19T17:24:38;1.37;;;1.03;;
6985;SDS011;3533;51.246;6.850;2023-03-19T17:27:04;3.10;;;1.23;;